createdAt,value
2022-08-18T00:02:54.462Z,4.50
2022-08-18T00:06:03.283Z,3.33
2022-08-18T00:09:07.827Z,3.42
2022-08-18T00:12:40.747Z,3.70
2022-08-18T00:15:48.881Z,3.50
2022-08-18T00:18:52.028Z,3.72
2022-08-18T00:21:54.487Z,4.10
2022-08-18T00:24:58.370Z,4.25
2022-08-18T00:28:00.446Z,3.92
2022-08-18T00:31:02.656Z,4.15
2022-08-18T00:34:04.794Z,3.70
2022-08-18T00:37:07.076Z,3.53
2022-08-18T00:40:13.306Z,4.13
2022-08-18T00:43:27.100Z,4.28
2022-08-18T00:46:32.525Z,3.55
2022-08-18T00:49:40.512Z,3.72
2022-08-18T00:52:52.437Z,3.80
2022-08-18T00:55:59.400Z,3.92
2022-08-18T00:59:17.567Z,3.95
2022-08-18T01:02:30.524Z,4.30
2022-08-18T01:05:37.796Z,4.72
2022-08-18T01:08:40.158Z,3.85
2022-08-18T01:11:43.016Z,3.78
2022-08-18T01:14:46.760Z,3.45
2022-08-18T01:17:51.664Z,4.25
2022-08-18T01:21:04.802Z,4.25
2022-08-18T01:24:10.249Z,3.95
2022-08-18T01:27:16.599Z,4.75
2022-08-18T01:30:18.947Z,5.25
2022-08-18T01:33:20.987Z,4.78
2022-08-18T01:36:29.009Z,4.20
2022-08-18T01:41:21.186Z,4.40
2022-08-18T01:42:53.221Z,3.67
2022-08-18T01:48:57.962Z,4.32
2022-08-18T01:52:00.121Z,4.55
2022-08-18T01:55:02.733Z,4.50
2022-08-18T01:58:06.704Z,4.30
2022-08-18T02:01:08.855Z,4.43
2022-08-18T02:04:33.854Z,4.55
2022-08-18T02:07:36.438Z,4.47
2022-08-18T02:10:39.629Z,4.65
2022-08-18T02:13:41.982Z,4.38
2022-08-18T02:16:44.008Z,4.72
2022-08-18T02:22:49.622Z,4.43
2022-08-18T02:25:52.031Z,5.60
2022-08-18T02:28:54.219Z,5.68
2022-08-18T02:34:58.246Z,5.72
2022-08-18T02:38:02.005Z,4.63
2022-08-18T02:41:07.736Z,5.78
2022-08-18T02:44:10.493Z,4.63
2022-08-18T02:47:12.607Z,5.45
2022-08-18T02:53:17.141Z,4.50
2022-08-18T02:56:40.003Z,5.28
2022-08-18T02:59:47.358Z,4.78
2022-08-18T03:02:51.844Z,5.38
2022-08-18T03:05:53.852Z,5.00
2022-08-18T03:11:59.013Z,5.15
2022-08-18T03:15:01.289Z,4.45
2022-08-18T03:18:03.291Z,5.18
2022-08-18T03:24:10.759Z,4.60
2022-08-18T03:27:12.956Z,5.07
2022-08-18T03:30:15.035Z,5.10
2022-08-18T03:36:24.917Z,4.63
2022-08-18T03:39:27.616Z,5.32
2022-08-18T03:42:29.821Z,5.10
2022-08-18T03:48:34.146Z,4.72
2022-08-18T03:51:36.355Z,5.05
2022-08-18T03:54:40.390Z,4.93
2022-08-18T03:57:44.002Z,5.40
2022-08-18T04:00:46.103Z,5.35
2022-08-18T04:03:52.591Z,5.15
2022-08-18T04:07:00.710Z,4.88
2022-08-18T04:13:05.127Z,5.50
2022-08-18T04:16:07.900Z,4.47
2022-08-18T04:19:11.002Z,5.50
2022-08-18T04:22:17.657Z,4.90
2022-08-18T04:25:21.682Z,5.05
2022-08-18T04:28:23.920Z,5.72
2022-08-18T04:31:25.962Z,4.32
2022-08-18T04:37:30.006Z,5.47
2022-08-18T04:43:34.209Z,4.53
2022-08-18T04:46:42.263Z,4.80
2022-08-18T04:52:46.859Z,4.90
2022-08-18T04:58:55.726Z,5.28
2022-08-18T05:02:00.763Z,4.85
2022-08-18T05:05:03.783Z,4.55
2022-08-18T05:08:06.324Z,5.07
2022-08-18T05:11:08.953Z,5.03
2022-08-18T05:14:11.664Z,5.20
2022-08-18T05:17:15.544Z,5.70
2022-08-18T05:20:17.543Z,5.43
2022-08-18T05:23:20.909Z,5.68
2022-08-18T05:26:25.251Z,5.47
2022-08-18T05:29:27.213Z,4.40
2022-08-18T05:32:48.454Z,5.07
2022-08-18T05:36:00.042Z,4.70
2022-08-18T05:39:08.124Z,5.63
2022-08-18T05:45:19.682Z,5.22
2022-08-18T05:48:22.809Z,5.00
2022-08-18T05:51:46.030Z,5.55
2022-08-18T05:54:52.256Z,5.32
2022-08-18T05:58:04.868Z,4.53
2022-08-18T06:01:15.776Z,4.60
2022-08-18T06:04:30.765Z,5.45
2022-08-18T06:07:42.183Z,5.15
2022-08-18T06:10:48.366Z,4.72
2022-08-18T06:13:51.688Z,4.70
2022-08-18T06:17:20.199Z,5.25
2022-08-18T06:20:31.677Z,5.45
2022-08-18T06:24:20.720Z,4.80
2022-08-18T06:27:37.309Z,5.93
2022-08-18T06:30:57.883Z,5.43
2022-08-18T06:34:06.203Z,5.18
2022-08-18T06:37:11.229Z,5.10
2022-08-18T06:40:13.305Z,4.82
2022-08-18T06:43:17.017Z,5.88
2022-08-18T06:46:23.521Z,5.97
2022-08-18T06:49:37.017Z,5.28
2022-08-18T06:52:51.527Z,5.20
2022-08-18T06:55:53.433Z,5.80
2022-08-18T07:02:45.177Z,5.90
2022-08-18T07:06:08.134Z,5.60
2022-08-18T07:09:24.303Z,5.55
2022-08-18T07:12:32.743Z,6.32
2022-08-18T07:15:35.111Z,6.25
2022-08-18T07:18:39.704Z,6.65
2022-08-18T07:21:42.819Z,6.90
2022-08-18T07:24:53.520Z,7.20
2022-08-18T07:27:55.917Z,6.90
2022-08-18T07:31:19.371Z,6.07
2022-08-18T07:34:28.642Z,6.85
2022-08-18T07:37:30.504Z,5.93
2022-08-18T07:40:40.913Z,5.80
2022-08-18T07:44:16.949Z,5.80
2022-08-18T07:47:29.525Z,6.05
2022-08-18T07:50:58.755Z,6.00
2022-08-18T07:54:02.680Z,6.40
2022-08-18T08:00:54.884Z,5.85
2022-08-18T08:04:04.384Z,6.50
2022-08-18T08:07:24.324Z,6.20
2022-08-18T08:10:47.171Z,6.53
2022-08-18T08:13:56.446Z,6.40
2022-08-18T08:17:19.975Z,5.63
2022-08-18T08:20:32.947Z,5.78
2022-08-18T08:23:53.418Z,6.20
2022-08-18T08:27:17.911Z,5.63
2022-08-18T08:30:23.681Z,5.97
2022-08-18T08:34:09.854Z,6.10
2022-08-18T08:37:30.371Z,6.45
2022-08-18T08:40:49.259Z,6.70
2022-08-18T08:44:10.220Z,6.85
2022-08-18T08:47:23.521Z,5.97
2022-08-18T08:50:28.630Z,6.50
2022-08-18T08:53:38.281Z,7.03
2022-08-18T08:56:47.147Z,8.30
2022-08-18T08:59:51.306Z,7.40
2022-08-18T09:03:33.071Z,6.70
2022-08-18T09:07:01.070Z,8.15
2022-08-18T09:10:35.839Z,7.70
2022-08-18T09:14:11.669Z,7.85
2022-08-18T09:17:45.272Z,7.95
2022-08-18T09:20:58.195Z,8.75
2022-08-18T09:24:15.060Z,8.88
2022-08-18T09:27:37.009Z,7.93
2022-08-18T09:31:03.809Z,8.50
2022-08-18T09:34:32.498Z,9.88
2022-08-18T09:37:50.395Z,9.38
2022-08-18T09:41:03.210Z,9.35
2022-08-18T09:44:11.944Z,9.30
2022-08-18T09:47:31.967Z,9.45
2022-08-18T09:50:55.889Z,11.25
2022-08-18T09:54:13.704Z,10.05
2022-08-18T09:57:22.555Z,10.50
2022-08-18T10:00:30.795Z,10.68
2022-08-18T10:03:35.477Z,11.77
2022-08-18T10:09:53.524Z,9.80
2022-08-18T10:13:09.771Z,10.25
2022-08-18T10:16:22.881Z,10.75
2022-08-18T10:20:03.413Z,10.65
2022-08-18T10:23:07.833Z,11.55
2022-08-18T10:26:31.891Z,12.07
2022-08-18T10:29:45.306Z,11.95
2022-08-18T10:32:52.141Z,13.38
2022-08-18T10:36:00.949Z,12.30
2022-08-18T10:39:13.594Z,12.20
2022-08-18T10:42:31.156Z,13.25
2022-08-18T10:45:54.782Z,13.27
2022-08-18T10:49:12.612Z,13.68
2022-08-18T11:03:51.697Z,15.48
2022-08-18T11:07:03.050Z,15.50
2022-08-18T11:10:58.133Z,16.42
2022-08-18T11:14:14.254Z,14.73
2022-08-18T11:17:30.426Z,15.70
2022-08-18T11:20:33.352Z,16.55
2022-08-18T11:23:35.506Z,15.68
2022-08-18T11:26:52.486Z,15.60
2022-08-18T11:30:00.330Z,15.38
2022-08-18T11:33:03.570Z,16.23
2022-08-18T11:36:06.476Z,14.70
2022-08-18T11:39:10.611Z,14.48
2022-08-18T11:42:25.134Z,13.60
2022-08-18T11:45:33.683Z,13.90
2022-08-18T11:48:46.478Z,13.38
2022-08-18T11:55:31.605Z,16.00
2022-08-18T11:58:50.573Z,15.13
2022-08-18T12:01:54.810Z,15.18
2022-08-18T12:05:03.510Z,16.20
2022-08-18T12:08:41.862Z,13.73
2022-08-18T12:11:58.842Z,14.60
2022-08-18T12:15:26.239Z,15.48
2022-08-18T12:18:38.972Z,15.27
2022-08-18T12:21:46.679Z,14.80
2022-08-18T12:24:58.475Z,13.60
2022-08-18T12:28:00.440Z,16.98
2022-08-18T12:31:03.085Z,15.07
2022-08-18T12:34:24.966Z,14.25
2022-08-18T12:40:51.950Z,15.13
2022-08-18T12:47:26.880Z,12.45
2022-08-18T12:50:39.144Z,13.88
2022-08-18T12:57:52.164Z,11.75
2022-08-18T13:00:44.697Z,12.40
2022-08-18T13:04:03.546Z,11.52
2022-08-18T13:07:13.658Z,11.55
2022-08-18T13:10:21.628Z,10.60
2022-08-18T13:17:01.022Z,8.60
2022-08-18T13:20:10.992Z,10.35
2022-08-18T13:23:15.604Z,10.35
2022-08-18T13:26:30.314Z,10.02
2022-08-18T13:29:32.335Z,9.82
2022-08-18T13:32:47.252Z,10.65
2022-08-18T13:35:57.736Z,9.88
2022-08-18T13:39:00.767Z,10.00
2022-08-18T13:42:26.634Z,11.25
2022-08-18T13:45:26.208Z,11.27
2022-08-18T13:48:28.356Z,13.55
2022-08-18T13:51:31.542Z,11.35
2022-08-18T13:54:35.534Z,10.15
2022-08-18T13:57:39.552Z,9.90
2022-08-18T14:00:42.781Z,10.65
2022-08-18T14:03:47.216Z,9.45
2022-08-18T14:06:57.000Z,9.85
2022-08-18T14:10:04.565Z,9.98
2022-08-18T14:13:20.335Z,10.23
2022-08-18T14:16:26.763Z,10.52
2022-08-18T14:19:29.408Z,9.60
2022-08-18T14:22:32.021Z,8.90
2022-08-18T14:25:33.979Z,9.20
2022-08-18T14:28:36.132Z,9.27
2022-08-18T14:31:40.920Z,11.05
2022-08-18T14:34:50.708Z,9.85
2022-08-18T14:37:53.450Z,9.73
2022-08-18T14:41:02.125Z,9.60
2022-08-18T14:44:12.209Z,8.95
2022-08-18T14:47:17.472Z,9.35
2022-08-18T14:50:26.974Z,9.15
2022-08-18T14:53:32.236Z,9.73
2022-08-18T14:56:37.753Z,10.65
2022-08-18T14:59:41.181Z,9.85
2022-08-18T15:02:45.362Z,9.07
2022-08-18T15:05:48.243Z,9.43
2022-08-18T15:08:50.243Z,9.52
2022-08-18T15:11:52.385Z,9.15
2022-08-18T15:14:58.957Z,9.05
2022-08-18T15:18:04.448Z,9.60
2022-08-18T15:21:35.797Z,8.75
2022-08-18T15:24:39.782Z,8.93
2022-08-18T15:27:42.312Z,8.32
2022-08-18T15:30:51.004Z,8.52
2022-08-18T15:33:53.507Z,9.00
2022-08-18T15:36:55.838Z,9.23
2022-08-18T15:40:02.580Z,9.13
2022-08-18T15:43:10.345Z,8.15
2022-08-18T15:46:16.678Z,8.70
2022-08-18T15:49:19.196Z,10.77
2022-08-18T15:52:24.390Z,9.55
2022-08-18T15:55:35.791Z,9.10
2022-08-18T15:58:38.161Z,9.68
2022-08-18T16:01:42.948Z,11.05
2022-08-18T16:04:46.482Z,10.52
2022-08-18T16:07:48.888Z,10.23
2022-08-18T16:10:52.152Z,10.82
2022-08-18T16:13:54.098Z,9.40
2022-08-18T16:16:58.060Z,10.13
2022-08-18T16:20:00.623Z,9.75
2022-08-18T16:23:02.771Z,9.60
2022-08-18T16:26:05.982Z,9.35
2022-08-18T16:29:08.148Z,8.98
2022-08-18T16:32:16.439Z,8.45
2022-08-18T16:35:20.176Z,7.68
2022-08-18T16:38:23.101Z,7.57
2022-08-18T16:41:25.649Z,7.65
2022-08-18T16:44:27.763Z,7.30
2022-08-18T16:47:33.139Z,8.88
2022-08-18T16:50:36.693Z,9.27
2022-08-18T16:53:39.949Z,8.93
2022-08-18T16:56:42.630Z,9.30
2022-08-18T16:59:44.589Z,9.52
2022-08-18T17:02:46.638Z,9.63
2022-08-18T17:05:48.751Z,9.50
2022-08-18T17:08:51.349Z,9.02
2022-08-18T17:11:53.871Z,8.88
2022-08-18T17:14:56.324Z,8.48
2022-08-18T17:17:58.531Z,8.82
2022-08-18T17:21:09.560Z,8.52
2022-08-18T17:24:14.185Z,8.60
2022-08-18T17:27:30.748Z,8.73
2022-08-18T17:33:45.862Z,8.70
2022-08-18T17:36:53.474Z,8.00
2022-08-18T17:43:02.128Z,8.63
2022-08-18T17:46:17.121Z,8.27
2022-08-18T17:49:39.623Z,8.30
2022-08-18T17:52:53.400Z,8.45
2022-08-18T17:56:17.629Z,8.73
2022-08-18T17:59:42.792Z,8.65
2022-08-18T18:02:49.740Z,8.50
2022-08-18T18:05:58.688Z,8.60
2022-08-18T18:09:08.819Z,8.32
2022-08-18T18:12:24.175Z,9.38
2022-08-18T18:15:32.466Z,8.77
2022-08-18T18:18:36.305Z,8.20
2022-08-18T18:22:00.458Z,8.45
2022-08-18T18:25:02.980Z,8.68
2022-08-18T18:28:05.073Z,8.70
2022-08-18T18:31:26.600Z,8.25
2022-08-18T18:34:36.545Z,8.75
2022-08-18T18:38:23.855Z,8.93
2022-08-18T18:41:28.228Z,9.02
2022-08-18T18:44:30.892Z,8.82
2022-08-18T18:47:48.275Z,8.50
2022-08-18T18:51:10.500Z,8.52
2022-08-18T18:54:29.571Z,8.93
2022-08-18T18:57:40.621Z,9.95
2022-08-18T19:00:56.768Z,8.63
2022-08-18T19:04:08.062Z,9.13
2022-08-18T19:07:24.032Z,9.13
2022-08-18T19:10:39.357Z,9.35
2022-08-18T19:13:54.232Z,9.05
2022-08-18T19:17:21.929Z,9.88
2022-08-18T19:20:29.107Z,9.25
2022-08-18T19:23:44.899Z,9.50
2022-08-18T19:26:54.823Z,9.63
2022-08-18T19:30:02.520Z,9.73
2022-08-18T19:33:07.591Z,10.10
2022-08-18T19:36:33.287Z,10.23
2022-08-18T19:39:46.461Z,9.68
2022-08-18T19:43:06.403Z,9.77
2022-08-18T19:46:22.968Z,10.15
2022-08-18T19:49:51.101Z,10.15
2022-08-18T19:53:12.122Z,10.60
2022-08-18T19:56:52.847Z,11.35
2022-08-18T20:00:03.348Z,10.55
2022-08-18T20:03:33.386Z,10.20
2022-08-18T20:06:47.640Z,10.70
2022-08-18T20:10:25.195Z,10.98
2022-08-18T20:13:30.094Z,11.20
2022-08-18T20:16:43.341Z,10.75
2022-08-18T20:19:55.464Z,11.60
2022-08-18T20:23:01.326Z,11.75
2022-08-18T20:26:03.594Z,11.77
2022-08-18T20:29:17.751Z,11.02
2022-08-18T20:32:32.729Z,11.60
2022-08-18T20:35:58.493Z,11.65
2022-08-18T20:39:00.657Z,11.40
2022-08-18T20:42:05.310Z,11.43
2022-08-18T20:45:16.776Z,11.55
2022-08-18T20:48:33.462Z,12.00
2022-08-18T20:51:52.215Z,11.35
2022-08-18T20:55:20.425Z,12.48
2022-08-18T20:58:37.490Z,11.73
2022-08-18T21:01:40.005Z,11.88
2022-08-18T21:04:46.910Z,10.82
2022-08-18T21:08:01.180Z,12.00
2022-08-18T21:11:10.031Z,12.02
2022-08-18T21:14:13.087Z,12.02
2022-08-18T21:17:15.133Z,12.00
2022-08-18T21:20:18.121Z,12.98
2022-08-18T21:23:33.953Z,11.88
2022-08-18T21:26:38.407Z,12.00
2022-08-18T21:29:49.078Z,12.35
2022-08-18T21:32:51.804Z,12.52
2022-08-18T21:35:53.869Z,11.52
2022-08-18T21:42:16.790Z,12.48
2022-08-18T21:45:22.361Z,11.77
2022-08-18T21:48:27.530Z,12.75
2022-08-18T21:51:32.833Z,12.98
2022-08-18T21:54:35.133Z,12.38
2022-08-18T21:57:58.845Z,13.07
2022-08-18T22:01:29.616Z,12.73
2022-08-18T22:04:37.356Z,12.63
2022-08-18T22:07:48.564Z,12.75
2022-08-18T22:11:38.373Z,12.27
2022-08-18T22:14:55.101Z,13.05
2022-08-18T22:18:05.376Z,13.30
2022-08-18T22:21:32.303Z,13.20
2022-08-18T22:24:37.868Z,12.57
2022-08-18T22:27:40.188Z,12.73
2022-08-18T22:30:42.182Z,12.25
2022-08-18T22:33:45.013Z,12.75
2022-08-18T22:36:57.839Z,12.35
2022-08-18T22:40:08.456Z,13.52
2022-08-18T22:43:10.522Z,12.30
2022-08-18T22:49:26.422Z,12.85
2022-08-18T22:52:36.127Z,12.30
2022-08-18T22:55:38.093Z,12.73
2022-08-18T22:58:40.200Z,12.98
2022-08-18T23:01:47.431Z,12.38
2022-08-18T23:04:49.522Z,12.57
2022-08-18T23:07:51.527Z,11.95
2022-08-18T23:10:53.697Z,14.30
2022-08-18T23:13:58.940Z,12.05
2022-08-18T23:17:02.634Z,12.15
2022-08-18T23:20:06.096Z,12.95
2022-08-18T23:23:08.120Z,13.55
2022-08-18T23:26:10.631Z,13.68
2022-08-18T23:29:14.986Z,12.75
2022-08-18T23:32:16.986Z,13.50
2022-08-18T23:35:19.124Z,13.13
2022-08-18T23:38:21.717Z,13.00
2022-08-18T23:41:34.970Z,14.18
2022-08-18T23:44:40.408Z,13.35
2022-08-18T23:47:43.134Z,12.55
2022-08-18T23:50:46.445Z,12.98
2022-08-18T23:53:48.379Z,13.32
2022-08-18T23:59:52.416Z,13.35
